Time;durP1;ratioP1;P1;durP2;ratioP2;P2;SDS_P1;SDS_P2;PMS_P1;PMS_P2;Temp;Humidity;BMP_temperature;BMP_pressure;BME280_temperature;BME280_humidity;BME280_pressure;Samples;Min_cycle;Max_cycle;Signal;HPM_P1;HPM_P2
2022/03/03 00:01:03;;;;;;;17.17;12.97;;;4.70;96.50;;;;;;5055501;28;20252;-68
2022/03/03 00:03:29;;;;;;;15.90;12.77;;;4.60;96.20;;;;;;5055018;28;20594;-68
2022/03/03 00:05:54;;;;;;;17.30;12.97;;;4.60;96.20;;;;;;5055185;28;20236;-69
2022/03/03 00:08:20;;;;;;;15.83;12.70;;;4.60;96.30;;;;;;5055357;28;20218;-67
2022/03/03 00:10:45;;;;;;;16.07;12.40;;;4.60;96.40;;;;;;5055754;28;20189;-67
2022/03/03 00:13:11;;;;;;;15.23;12.00;;;4.50;96.40;;;;;;5054324;28;20200;-68
2022/03/03 00:15:36;;;;;;;14.10;12.43;;;4.50;96.40;;;;;;5054778;28;20197;-68
2022/03/03 00:18:02;;;;;;;15.33;12.57;;;4.50;96.40;;;;;;5055049;28;20338;-68
2022/03/03 00:20:28;;;;;;;16.33;11.90;;;4.40;96.50;;;;;;5055932;28;20185;-68
2022/03/03 00:22:55;;;;;;;18.80;12.57;;;4.40;96.50;;;;;;5054515;28;20417;-68
2022/03/03 00:25:21;;;;;;;18.63;13.40;;;4.20;96.50;;;;;;5054674;28;20434;-68
2022/03/03 00:27:46;;;;;;;16.33;12.90;;;4.20;96.90;;;;;;5057243;28;20480;-69
2022/03/03 00:30:12;;;;;;;16.03;13.00;;;4.20;97.10;;;;;;5058116;28;20396;-68
2022/03/03 00:32:40;;;;;;;15.57;11.67;;;4.20;97.10;;;;;;5057929;28;20223;-68
2022/03/03 00:35:08;;;;;;;19.30;13.10;;;4.20;97.20;;;;;;5039954;28;20186;-69
2022/03/03 00:37:33;;;;;;;15.50;12.03;;;4.30;97.10;;;;;;5060460;28;20425;-69
2022/03/03 00:39:59;;;;;;;14.57;12.40;;;4.30;97.00;;;;;;5077595;28;20412;-69
2022/03/03 00:42:24;;;;;;;15.20;12.60;;;4.20;96.90;;;;;;5077096;28;20275;-70
2022/03/03 00:44:50;;;;;;;14.00;11.87;;;4.20;97.00;;;;;;5076947;28;20196;-70
2022/03/03 00:47:15;;;;;;;15.87;12.93;;;4.20;97.00;;;;;;5077435;28;20204;-69
2022/03/03 00:49:41;;;;;;;17.67;13.20;;;4.20;97.10;;;;;;5075516;28;20551;-69
2022/03/03 00:52:07;;;;;;;14.97;12.63;;;4.30;97.20;;;;;;5077087;28;20260;-68
2022/03/03 00:54:32;;;;;;;13.10;11.70;;;4.20;97.10;;;;;;5076382;28;20295;-69
2022/03/03 00:56:58;;;;;;;17.03;12.30;;;4.20;97.10;;;;;;5074565;28;20184;-68
2022/03/03 00:59:23;;;;;;;12.37;11.07;;;4.20;97.20;;;;;;5054434;28;20185;-68
2022/03/03 01:01:49;;;;;;;14.40;11.40;;;4.20;97.20;;;;;;5073829;28;20196;-68
2022/03/03 01:04:15;;;;;;;17.20;13.50;;;4.20;97.20;;;;;;5077637;22;20321;-70
2022/03/03 01:06:40;;;;;;;15.17;12.27;;;4.10;97.30;;;;;;5024315;28;20618;-70
2022/03/03 01:09:06;;;;;;;16.30;11.67;;;4.10;97.30;;;;;;5035159;28;20171;-70
2022/03/03 01:11:31;;;;;;;14.00;12.10;;;4.10;97.20;;;;;;5059853;28;20201;-70
2022/03/03 01:13:57;;;;;;;15.63;13.17;;;4.10;97.20;;;;;;5061829;28;20196;-70
2022/03/03 01:16:22;;;;;;;14.30;12.40;;;4.00;97.10;;;;;;5053124;28;20197;-70
2022/03/03 01:18:48;;;;;;;15.67;12.77;;;3.90;97.40;;;;;;5035493;28;20696;-70
2022/03/03 01:21:13;;;;;;;15.90;13.20;;;3.80;97.80;;;;;;5067107;28;20223;-70
2022/03/03 01:23:39;;;;;;;17.30;13.23;;;3.70;98.30;;;;;;5077366;28;20221;-69
2022/03/03 01:26:04;;;;;;;15.20;12.03;;;3.70;98.50;;;;;;5077787;28;20239;-70
2022/03/03 01:28:30;;;;;;;16.97;13.53;;;3.60;98.80;;;;;;5077603;28;20197;-70
2022/03/03 01:30:55;;;;;;;18.33;11.17;;;3.60;99.10;;;;;;5078476;28;20178;-69
2022/03/03 01:33:21;;;;;;;14.27;11.67;;;3.60;99.40;;;;;;5057648;28;20195;-70
2022/03/03 01:35:46;;;;;;;15.43;12.40;;;3.60;99.40;;;;;;5053190;28;20665;-69
2022/03/03 01:38:12;;;;;;;17.20;13.53;;;3.70;99.30;;;;;;5053089;28;20208;-69
2022/03/03 01:40:38;;;;;;;15.87;12.30;;;3.70;98.80;;;;;;5052439;28;20199;-70
2022/03/03 01:43:04;;;;;;;17.83;12.67;;;3.70;98.50;;;;;;5052486;28;20169;-70
2022/03/03 01:45:29;;;;;;;15.47;12.27;;;3.60;98.50;;;;;;5052492;28;20500;-70
2022/03/03 01:47:55;;;;;;;16.57;12.10;;;3.60;98.50;;;;;;5052690;28;20415;-70
2022/03/03 01:50:21;;;;;;;13.87;11.33;;;3.50;98.10;;;;;;5052372;28;20223;-70
2022/03/03 01:52:46;;;;;;;15.33;12.00;;;3.50;98.40;;;;;;5052168;28;20176;-71
2022/03/03 01:55:13;;;;;;;15.37;12.40;;;3.40;98.60;;;;;;5051635;28;20244;-70
2022/03/03 01:57:39;;;;;;;17.07;11.70;;;3.40;98.90;;;;;;5052624;28;20173;-70
2022/03/03 02:00:06;;;;;;;17.40;12.27;;;3.40;99.00;;;;;;5035162;28;20792;-70
2022/03/03 02:02:32;;;;;;;16.33;12.10;;;3.50;99.10;;;;;;5052205;28;20519;-70
2022/03/03 02:04:57;;;;;;;15.60;11.67;;;3.40;99.30;;;;;;5052684;28;20826;-70
2022/03/03 02:07:23;;;;;;;16.83;11.50;;;3.40;99.80;;;;;;5052621;28;20574;-70
2022/03/03 02:09:49;;;;;;;16.33;12.23;;;3.20;99.90;;;;;;5053064;28;20188;-70
2022/03/03 02:12:14;;;;;;;16.67;12.23;;;3.20;99.90;;;;;;5051874;28;20664;-70
2022/03/03 02:14:45;;;;;;;15.13;10.93;;;3.20;99.90;;;;;;5053453;28;20196;-70
2022/03/03 02:17:11;;;;;;;16.00;11.90;;;3.10;99.90;;;;;;5052670;28;20179;-70
2022/03/03 02:19:37;;;;;;;17.50;12.47;;;3.10;99.90;;;;;;5052264;28;20481;-70
2022/03/03 02:22:03;;;;;;;17.77;12.73;;;3.20;99.90;;;;;;5052174;28;20824;-70
2022/03/03 02:24:29;;;;;;;17.37;12.80;;;3.20;99.90;;;;;;5051561;28;20495;-70
2022/03/03 02:26:55;;;;;;;16.97;12.87;;;3.20;99.90;;;;;;5052287;28;20633;-70
2022/03/03 02:29:21;;;;;;;16.10;12.37;;;3.20;99.90;;;;;;5052210;28;20269;-70
2022/03/03 02:31:48;;;;;;;17.07;12.73;;;3.20;99.90;;;;;;5051913;28;20494;-70
2022/03/03 02:34:13;;;;;;;13.17;11.80;;;3.20;99.90;;;;;;5051574;28;20180;-70
2022/03/03 02:36:39;;;;;;;16.13;12.37;;;3.30;99.90;;;;;;5052102;28;20455;-70
2022/03/03 02:39:05;;;;;;;14.93;12.20;;;3.40;99.90;;;;;;5051759;28;20183;-70
2022/03/03 02:41:31;;;;;;;15.70;11.97;;;3.40;99.70;;;;;;5051951;28;20171;-70
2022/03/03 02:43:59;;;;;;;14.87;11.60;;;3.30;99.80;;;;;;5051379;28;20805;-70
2022/03/03 02:46:25;;;;;;;13.33;11.47;;;3.30;99.80;;;;;;5051716;28;20462;-70
2022/03/03 02:48:51;;;;;;;15.57;12.87;;;3.40;99.60;;;;;;5051280;28;20444;-70
2022/03/03 02:51:16;;;;;;;17.27;12.80;;;3.30;99.70;;;;;;5051610;28;20249;-70
2022/03/03 02:53:42;;;;;;;15.97;12.37;;;3.30;99.60;;;;;;5051689;28;20433;-70
2022/03/03 02:56:08;;;;;;;13.77;11.93;;;3.30;99.50;;;;;;5051864;28;20196;-70
2022/03/03 02:58:34;;;;;;;14.37;11.13;;;3.40;99.50;;;;;;5051369;28;20439;-70
2022/03/03 03:01:01;;;;;;;16.17;11.70;;;3.30;99.60;;;;;;5052016;28;20538;-70
2022/03/03 03:03:27;;;;;;;15.10;12.63;;;3.10;99.70;;;;;;5051760;28;20177;-70
2022/03/03 03:05:53;;;;;;;17.93;12.80;;;2.90;99.90;;;;;;5051449;28;20466;-70
2022/03/03 03:08:18;;;;;;;22.90;12.60;;;2.70;99.90;;;;;;5054600;28;20414;-70
2022/03/03 03:10:44;;;;;;;14.33;11.90;;;2.60;99.90;;;;;;5054833;28;20171;-70
2022/03/03 03:13:12;;;;;;;15.90;12.00;;;2.50;99.90;;;;;;5054817;28;20214;-70
2022/03/03 03:15:39;;;;;;;14.10;11.13;;;2.40;99.90;;;;;;5055582;28;20194;-70
2022/03/03 03:18:09;;;;;;;16.40;12.40;;;2.40;99.90;;;;;;5055143;28;20937;-69
2022/03/03 03:20:36;;;;;;;15.97;12.57;;;2.40;99.90;;;;;;5054906;28;20420;-70
2022/03/03 03:23:01;;;;;;;17.60;12.60;;;2.40;99.90;;;;;;5054284;28;20633;-70
2022/03/03 03:25:27;;;;;;;16.80;13.47;;;2.40;99.90;;;;;;5054472;28;20476;-70
2022/03/03 03:27:52;;;;;;;16.60;13.00;;;2.40;99.90;;;;;;5055035;28;20174;-69
2022/03/03 03:30:18;;;;;;;16.50;12.20;;;2.50;99.90;;;;;;5054574;28;20174;-70
2022/03/03 03:32:43;;;;;;;15.53;12.33;;;2.40;99.90;;;;;;5054123;28;20185;-69
2022/03/03 03:35:09;;;;;;;19.50;13.17;;;2.40;99.90;;;;;;5054804;28;20193;-70
2022/03/03 03:37:38;;;;;;;17.03;12.03;;;2.30;99.90;;;;;;5037066;28;20205;-70
2022/03/03 03:40:06;;;;;;;19.60;13.00;;;2.20;99.90;;;;;;5054547;28;20412;-70
2022/03/03 03:42:31;;;;;;;18.00;12.93;;;2.10;99.90;;;;;;5054216;28;20424;-70
2022/03/03 03:44:57;;;;;;;19.43;13.77;;;2.10;99.90;;;;;;5054550;28;20468;-70
2022/03/03 03:47:23;;;;;;;16.83;12.10;;;2.10;99.90;;;;;;5054523;28;20201;-70
2022/03/03 03:49:48;;;;;;;18.37;13.37;;;2.10;99.90;;;;;;5054298;28;20699;-70
2022/03/03 03:52:14;;;;;;;15.60;12.30;;;2.00;99.90;;;;;;5054131;28;20255;-70
2022/03/03 03:54:39;;;;;;;17.67;12.43;;;2.10;99.90;;;;;;5054915;28;20239;-70
2022/03/03 03:57:05;;;;;;;17.00;12.60;;;2.00;99.90;;;;;;5054598;28;20262;-70
2022/03/03 03:59:30;;;;;;;21.50;14.37;;;1.80;99.90;;;;;;5054364;28;20175;-70
2022/03/03 04:01:56;;;;;;;18.47;12.47;;;1.90;99.90;;;;;;5054488;28;20268;-70
2022/03/03 04:04:22;;;;;;;16.97;12.50;;;2.00;99.90;;;;;;5053964;28;20627;-70
2022/03/03 04:06:47;;;;;;;16.10;13.80;;;2.00;99.90;;;;;;5054014;28;20456;-70
2022/03/03 04:09:13;;;;;;;16.27;12.63;;;2.00;99.90;;;;;;5054216;28;20178;-70
2022/03/03 04:11:38;;;;;;;17.27;12.43;;;2.00;99.90;;;;;;5053826;28;20183;-70
2022/03/03 04:14:04;;;;;;;16.37;11.80;;;2.10;99.90;;;;;;5053663;28;20240;-69
2022/03/03 04:16:30;;;;;;;18.80;12.83;;;2.00;99.90;;;;;;5054258;28;20225;-69
2022/03/03 04:18:55;;;;;;;16.07;12.43;;;2.00;99.90;;;;;;5053689;28;20609;-69
2022/03/03 04:21:21;;;;;;;17.77;12.87;;;2.10;99.90;;;;;;5053631;28;20193;-69
2022/03/03 04:23:46;;;;;;;17.43;13.20;;;2.20;99.90;;;;;;5053720;28;20182;-69
2022/03/03 04:26:12;;;;;;;16.63;12.27;;;2.30;99.90;;;;;;5053975;28;20212;-70
2022/03/03 04:28:38;;;;;;;17.00;12.20;;;2.30;99.90;;;;;;5035690;28;20174;-70
2022/03/03 04:31:03;;;;;;;15.73;12.50;;;2.40;99.90;;;;;;5053704;28;20175;-70
2022/03/03 04:33:30;;;;;;;17.50;12.73;;;2.40;99.90;;;;;;5052215;28;20186;-69
2022/03/03 04:35:59;;;;;;;18.20;12.50;;;2.40;99.90;;;;;;5053126;28;20204;-70
2022/03/03 04:38:25;;;;;;;18.10;12.33;;;2.40;99.90;;;;;;5035489;28;20426;-69
2022/03/03 04:40:51;;;;;;;18.10;14.00;;;2.50;99.90;;;;;;5053969;28;20408;-70
2022/03/03 04:43:16;;;;;;;15.63;12.13;;;2.50;99.90;;;;;;5053382;28;20571;-70
2022/03/03 04:45:42;;;;;;;18.23;12.83;;;2.50;99.90;;;;;;5053629;28;20463;-70
2022/03/03 04:48:08;;;;;;;15.70;11.63;;;2.50;99.90;;;;;;5053549;28;20191;-70
2022/03/03 04:50:34;;;;;;;14.93;12.80;;;2.60;99.90;;;;;;5053740;28;20421;-70
2022/03/03 04:53:00;;;;;;;17.60;13.27;;;2.50;99.90;;;;;;5053640;28;20413;-70
2022/03/03 04:55:25;;;;;;;22.77;13.40;;;2.50;99.90;;;;;;5053875;28;20190;-70
2022/03/03 04:57:51;;;;;;;19.30;13.47;;;2.50;99.90;;;;;;5035881;28;20678;-70
2022/03/03 05:00:17;;;;;;;18.53;12.33;;;2.40;99.90;;;;;;5053494;28;20189;-70
2022/03/03 05:02:43;;;;;;;16.80;13.50;;;2.40;99.90;;;;;;5054301;28;20164;-70
2022/03/03 05:05:08;;;;;;;15.97;12.13;;;2.40;99.90;;;;;;5055066;28;20469;-70
2022/03/03 05:07:34;;;;;;;19.10;13.03;;;2.30;99.90;;;;;;5056957;28;20652;-70
2022/03/03 05:10:00;;;;;;;16.23;14.03;;;2.20;99.90;;;;;;5064170;28;20166;-70
2022/03/03 05:12:26;;;;;;;21.67;13.50;;;2.30;99.90;;;;;;5059069;28;20229;-71
2022/03/03 05:14:52;;;;;;;16.80;13.63;;;2.30;99.90;;;;;;5057478;28;20585;-71
2022/03/03 05:17:17;;;;;;;17.83;12.57;;;2.30;99.90;;;;;;5059556;28;20170;-69
2022/03/03 05:19:43;;;;;;;15.30;11.90;;;2.30;99.90;;;;;;5067438;28;20558;-70
2022/03/03 05:22:08;;;;;;;21.90;13.47;;;2.20;99.90;;;;;;5069257;28;20254;-71
2022/03/03 05:24:34;;;;;;;16.27;12.77;;;2.30;99.90;;;;;;5073210;28;20213;-70
2022/03/03 05:26:59;;;;;;;19.53;12.60;;;2.40;99.90;;;;;;5072505;28;20199;-70
2022/03/03 05:29:27;;;;;;;18.80;13.67;;;2.30;99.90;;;;;;5071901;28;20208;-70
2022/03/03 05:31:53;;;;;;;20.10;13.50;;;2.30;99.90;;;;;;5071158;28;20154;-70
2022/03/03 05:34:19;;;;;;;19.33;13.13;;;2.30;99.90;;;;;;5052489;28;20422;-69
2022/03/03 05:36:44;;;;;;;18.60;13.90;;;2.30;99.90;;;;;;5068557;28;20444;-70
2022/03/03 05:39:10;;;;;;;17.57;12.60;;;2.20;99.90;;;;;;5066004;28;20205;-69
2022/03/03 05:41:36;;;;;;;18.03;12.60;;;2.30;99.90;;;;;;5069033;28;20201;-69
2022/03/03 05:44:01;;;;;;;17.47;12.13;;;2.30;99.90;;;;;;5060312;28;20402;-71
2022/03/03 05:46:28;;;;;;;15.97;13.03;;;2.30;99.90;;;;;;5053035;28;20200;-70
2022/03/03 05:48:53;;;;;;;19.93;13.63;;;2.30;99.90;;;;;;5035123;28;20178;-70
2022/03/03 05:51:19;;;;;;;15.50;12.10;;;2.30;99.90;;;;;;5052981;28;20769;-70
2022/03/03 05:53:45;;;;;;;21.30;14.70;;;2.30;99.90;;;;;;5034861;28;20174;-70
2022/03/03 05:56:14;;;;;;;16.90;13.20;;;2.30;99.90;;;;;;5053707;28;20976;-70
2022/03/03 05:58:43;;;;;;;18.60;13.57;;;2.30;99.90;;;;;;5053160;28;20175;-70
2022/03/03 06:01:10;;;;;;;16.83;12.60;;;2.40;99.90;;;;;;5053226;28;20410;-70
2022/03/03 06:03:36;;;;;;;18.80;12.40;;;2.30;99.90;;;;;;5052386;28;20795;-70
2022/03/03 06:06:26;;;;;;;16.50;12.43;;;2.40;99.90;;;;;;5053262;28;20485;-70
2022/03/03 06:09:01;;;;;;;17.80;12.00;;;2.30;99.90;;;;;;5035986;28;20410;-70
2022/03/03 06:11:27;;;;;;;20.10;13.67;;;2.30;99.90;;;;;;5053017;28;20439;-70
2022/03/03 06:14:01;;;;;;;17.83;13.87;;;2.30;99.90;;;;;;5051885;28;20424;-70
2022/03/03 06:16:27;;;;;;;18.80;13.80;;;2.10;99.90;;;;;;5052229;28;20475;-70
2022/03/03 06:18:52;;;;;;;18.27;12.60;;;2.10;99.90;;;;;;5053142;28;20428;-70
2022/03/03 06:21:18;;;;;;;15.60;12.20;;;2.10;99.90;;;;;;5054877;28;20421;-71
2022/03/03 06:23:44;;;;;;;17.97;12.90;;;2.20;99.90;;;;;;5034918;28;20596;-71
2022/03/03 06:26:14;;;;;;;18.80;13.70;;;2.20;99.90;;;;;;5052931;28;20284;-71
2022/03/03 06:28:40;;;;;;;18.33;13.47;;;2.20;99.90;;;;;;5053076;28;20386;-71
2022/03/03 06:31:06;;;;;;;19.17;13.90;;;2.20;99.90;;;;;;5063992;28;20436;-71
2022/03/03 06:33:33;;;;;;;19.33;14.33;;;2.20;99.90;;;;;;5066839;28;20187;-71
2022/03/03 06:35:59;;;;;;;18.83;13.60;;;2.30;99.90;;;;;;5064097;28;20478;-71
2022/03/03 06:38:26;;;;;;;18.40;13.30;;;2.30;99.90;;;;;;5055940;28;20456;-71
2022/03/03 06:40:54;;;;;;;19.70;13.80;;;2.30;99.90;;;;;;5073813;28;20333;-71
2022/03/03 06:43:20;;;;;;;16.20;12.77;;;2.30;99.90;;;;;;5065919;28;20437;-71
2022/03/03 06:45:45;;;;;;;23.93;13.60;;;2.40;99.90;;;;;;5053998;28;20468;-71
2022/03/03 06:48:11;;;;;;;20.47;14.60;;;2.30;99.90;;;;;;5053931;28;20277;-70
2022/03/03 06:50:39;;;;;;;23.60;15.67;;;2.40;99.90;;;;;;5053596;28;20245;-70
2022/03/03 06:53:07;;;;;;;17.33;13.10;;;2.40;99.90;;;;;;5052192;28;20224;-71
2022/03/03 06:55:33;;;;;;;20.40;13.67;;;2.40;99.90;;;;;;5053906;28;20440;-70
2022/03/03 06:57:59;;;;;;;23.10;14.33;;;2.50;99.90;;;;;;5054586;28;20460;-70
2022/03/03 07:00:33;;;;;;;17.80;14.67;;;2.50;99.90;;;;;;5054952;28;20962;-70
2022/03/03 07:03:00;;;;;;;19.60;14.30;;;2.60;99.90;;;;;;5053965;28;20456;-69
2022/03/03 07:05:28;;;;;;;20.73;14.50;;;2.60;99.90;;;;;;5054418;28;20457;-70
2022/03/03 07:07:54;;;;;;;16.20;12.63;;;2.70;99.90;;;;;;5055648;28;20459;-70
2022/03/03 07:10:25;;;;;;;21.53;14.37;;;2.70;99.90;;;;;;5043489;28;20556;-70
2022/03/03 07:12:53;;;;;;;20.07;14.60;;;2.80;99.90;;;;;;5054121;28;20460;-70
2022/03/03 07:15:19;;;;;;;18.17;13.97;;;2.70;99.90;;;;;;5054418;28;20442;-70
2022/03/03 07:17:51;;;;;;;23.20;15.20;;;2.80;99.90;;;;;;5054456;28;21029;-69
2022/03/03 07:20:34;;;;;;;19.37;15.17;;;2.80;99.90;;;;;;5054291;28;20488;-69
2022/03/03 07:23:18;;;;;;;22.10;14.20;;;2.90;99.90;;;;;;5034527;28;20455;-70
2022/03/03 07:25:51;;;;;;;21.80;14.23;;;2.90;99.90;;;;;;5034278;28;20420;-70
2022/03/03 07:28:18;;;;;;;18.90;13.70;;;3.00;99.90;;;;;;5034732;28;20481;-69
2022/03/03 07:30:44;;;;;;;20.20;14.17;;;3.00;99.90;;;;;;5028080;28;20459;-69
2022/03/03 07:33:25;;;;;;;19.03;14.23;;;3.00;99.90;;;;;;5052659;28;20544;-71
2022/03/03 07:35:56;;;;;;;16.20;13.53;;;3.10;99.90;;;;;;5053162;28;20465;-69
2022/03/03 07:38:26;;;;;;;18.83;14.33;;;3.20;99.90;;;;;;5053404;28;20868;-70
2022/03/03 07:40:52;;;;;;;20.80;14.73;;;3.20;99.90;;;;;;5055151;28;20812;-70
2022/03/03 07:43:18;;;;;;;21.60;14.40;;;3.20;99.90;;;;;;5054384;28;20463;-70
2022/03/03 07:45:46;;;;;;;24.20;16.07;;;3.20;99.90;;;;;;5054069;28;20455;-70
2022/03/03 07:48:12;;;;;;;23.87;15.93;;;3.30;99.90;;;;;;5053131;28;20454;-70
2022/03/03 07:50:41;;;;;;;24.87;16.77;;;3.30;99.90;;;;;;5052324;28;20429;-70
2022/03/03 07:53:11;;;;;;;23.77;15.77;;;3.40;99.90;;;;;;5053712;28;20518;-70
2022/03/03 07:55:54;;;;;;;22.03;14.80;;;3.50;99.90;;;;;;5054181;28;20542;-70
2022/03/03 07:58:23;;;;;;;21.07;14.47;;;3.60;99.90;;;;;;5054760;28;20457;-70
2022/03/03 08:00:53;;;;;;;19.57;13.77;;;3.60;99.60;;;;;;5054400;28;20444;-70
2022/03/03 08:03:21;;;;;;;17.43;14.27;;;3.70;99.40;;;;;;5053899;28;20459;-69
2022/03/03 08:05:50;;;;;;;22.60;15.20;;;3.80;99.20;;;;;;5053902;28;20519;-70
2022/03/03 08:08:25;;;;;;;20.23;15.20;;;3.80;98.90;;;;;;5054791;28;20439;-70
2022/03/03 08:10:57;;;;;;;18.37;14.50;;;3.90;98.60;;;;;;5054810;28;20443;-70
2022/03/03 08:13:26;;;;;;;19.70;15.03;;;4.00;98.40;;;;;;5055282;28;20464;-69
2022/03/03 08:15:52;;;;;;;19.33;14.30;;;4.10;98.00;;;;;;5053241;28;20447;-70
2022/03/03 08:18:19;;;;;;;24.63;15.10;;;4.20;97.80;;;;;;5053848;28;20454;-71
2022/03/03 08:20:44;;;;;;;21.53;15.00;;;4.20;97.50;;;;;;5053432;28;20536;-71
2022/03/03 08:23:11;;;;;;;19.90;15.67;;;4.30;97.20;;;;;;5054028;28;21015;-72
2022/03/03 08:25:37;;;;;;;23.33;17.70;;;4.40;96.90;;;;;;5054285;28;20580;-71
2022/03/03 08:28:06;;;;;;;22.73;18.27;;;4.50;96.70;;;;;;5035596;28;20448;-69
2022/03/03 08:30:32;;;;;;;23.43;19.70;;;4.60;96.40;;;;;;5053759;28;20519;-72
2022/03/03 08:33:08;;;;;;;25.70;20.10;;;4.70;96.50;;;;;;5054175;28;20440;-72
2022/03/03 08:35:37;;;;;;;22.77;19.83;;;4.80;96.00;;;;;;5052919;28;20463;-71
2022/03/03 08:38:37;;;;;;;22.00;17.97;;;5.00;95.60;;;;;;5055436;28;21012;-74
2022/03/03 08:41:04;;;;;;;18.17;14.10;;;5.10;95.30;;;;;;5057006;28;20908;-70
2022/03/03 08:43:33;;;;;;;21.40;15.03;;;5.30;94.90;;;;;;5060459;28;20468;-71
2022/03/03 08:46:08;;;;;;;18.60;13.67;;;5.40;94.60;;;;;;5058747;28;20492;-71
2022/03/03 08:48:34;;;;;;;18.77;14.07;;;5.50;94.20;;;;;;5064903;28;20455;-71
2022/03/03 08:51:01;;;;;;;16.00;11.90;;;5.60;93.50;;;;;;5074145;28;20429;-71
2022/03/03 08:53:26;;;;;;;15.40;11.60;;;5.70;92.40;;;;;;5076630;28;20449;-71
2022/03/03 08:55:54;;;;;;;17.30;11.50;;;5.80;91.90;;;;;;5075119;28;20432;-71
2022/03/03 08:58:21;;;;;;;15.47;12.40;;;5.90;91.40;;;;;;5077482;28;20164;-71
2022/03/03 09:00:48;;;;;;;15.37;11.57;;;6.10;91.20;;;;;;5062390;28;20428;-72
2022/03/03 09:03:18;;;;;;;15.73;11.70;;;6.20;91.00;;;;;;5053059;28;20487;-71
2022/03/03 09:05:44;;;;;;;16.47;12.17;;;6.30;90.70;;;;;;5054112;28;20468;-72
2022/03/03 09:08:09;;;;;;;15.00;11.80;;;6.40;90.40;;;;;;5053100;28;20474;-72
2022/03/03 09:10:35;;;;;;;14.00;11.97;;;6.60;90.20;;;;;;5041416;28;20176;-72
2022/03/03 09:13:00;;;;;;;16.60;13.27;;;6.70;90.00;;;;;;5052516;28;20576;-72
2022/03/03 09:15:30;;;;;;;13.40;11.97;;;6.80;89.50;;;;;;5052582;28;20191;-72
2022/03/03 09:17:56;;;;;;;14.97;11.67;;;6.90;88.60;;;;;;5052805;28;20168;-72
2022/03/03 09:20:21;;;;;;;15.13;11.63;;;7.00;85.90;;;;;;5052259;28;20480;-72
2022/03/03 09:22:47;;;;;;;12.97;11.67;;;7.00;85.20;;;;;;5052603;28;20167;-72
2022/03/03 09:25:13;;;;;;;11.70;10.40;;;7.20;85.00;;;;;;5052717;28;20661;-72
2022/03/03 09:27:38;;;;;;;12.80;11.00;;;7.30;84.70;;;;;;5052752;28;20211;-72
2022/03/03 09:30:06;;;;;;;11.93;10.63;;;7.40;83.90;;;;;;5053566;28;20444;-72
2022/03/03 09:32:32;;;;;;;11.37;10.17;;;7.50;81.90;;;;;;5052710;28;20670;-72
2022/03/03 09:34:57;;;;;;;13.53;9.83;;;7.60;78.60;;;;;;5052762;28;20429;-70
2022/03/03 09:37:23;;;;;;;13.33;11.13;;;7.70;76.70;;;;;;5052957;28;20177;-70
2022/03/03 09:39:50;;;;;;;11.67;9.80;;;7.90;77.10;;;;;;5053109;28;20186;-71
2022/03/03 09:42:16;;;;;;;12.30;9.67;;;7.90;74.20;;;;;;5053067;28;20191;-71
2022/03/03 09:44:42;;;;;;;11.27;9.80;;;8.10;74.20;;;;;;5052792;28;20900;-71
2022/03/03 09:47:09;;;;;;;11.07;9.73;;;8.20;73.20;;;;;;5054119;28;20487;-71
2022/03/03 09:49:34;;;;;;;10.90;9.07;;;8.20;68.70;;;;;;5054325;28;20435;-71
2022/03/03 09:52:01;;;;;;;9.93;8.77;;;8.30;68.60;;;;;;5053959;28;20820;-71
2022/03/03 09:54:26;;;;;;;8.63;7.73;;;8.30;65.50;;;;;;5075911;28;20204;-71
2022/03/03 09:56:55;;;;;;;9.73;8.57;;;8.40;65.30;;;;;;5073446;28;20436;-71
2022/03/03 09:59:20;;;;;;;9.83;8.73;;;8.50;63.70;;;;;;5077144;28;20193;-71
2022/03/03 10:01:46;;;;;;;12.17;7.80;;;8.60;63.60;;;;;;5077182;28;20898;-71
2022/03/03 10:04:16;;;;;;;10.60;8.70;;;8.80;64.30;;;;;;5057142;28;20217;-72
2022/03/03 10:06:42;;;;;;;9.70;8.70;;;8.80;61.80;;;;;;5054567;28;20869;-71
2022/03/03 10:09:09;;;;;;;13.60;9.40;;;8.90;60.30;;;;;;5053884;28;20417;-72
2022/03/03 10:11:57;;;;;;;10.70;9.10;;;9.00;61.80;;;;;;5052387;28;20409;-72
2022/03/03 10:14:28;;;;;;;11.43;9.60;;;9.20;62.50;;;;;;5052199;28;20504;-71
2022/03/03 10:16:53;;;;;;;13.30;8.93;;;9.20;62.10;;;;;;5052939;28;20416;-71
2022/03/03 10:19:19;;;;;;;11.77;9.40;;;9.40;61.40;;;;;;5056387;28;20419;-71
2022/03/03 10:21:44;;;;;;;9.17;8.27;;;9.50;60.70;;;;;;5038478;28;20182;-72
2022/03/03 10:24:27;;;;;;;11.83;9.67;;;9.70;58.00;;;;;;5055852;28;20182;-71
2022/03/03 10:27:01;;;;;;;13.70;9.90;;;9.70;56.70;;;;;;5056490;28;20285;-71
2022/03/03 10:29:27;;;;;;;10.57;8.40;;;9.80;56.80;;;;;;5056243;28;20420;-72
2022/03/03 10:31:55;;;;;;;13.40;9.50;;;9.80;54.70;;;;;;5055621;28;20423;-70
2022/03/03 10:34:25;;;;;;;10.07;8.50;;;9.90;56.20;;;;;;5055114;28;20413;-68
2022/03/03 10:37:21;;;;;;;10.00;8.50;;;10.10;55.40;;;;;;5054581;28;20991;-68
2022/03/03 10:39:48;;;;;;;8.83;7.50;;;10.30;70.60;;;;;;5033750;28;20470;-68
2022/03/03 10:42:19;;;;;;;12.90;8.87;;;10.60;76.90;;;;;;5034729;28;20414;-67
2022/03/03 10:44:46;;;;;;;9.37;8.33;;;10.70;58.70;;;;;;5034668;28;20487;-68
2022/03/03 10:47:17;;;;;;;10.87;9.13;;;10.80;59.80;;;;;;5034918;28;20528;-67
2022/03/03 10:49:45;;;;;;;10.03;9.03;;;10.90;57.40;;;;;;5051875;28;20431;-69
2022/03/03 10:52:21;;;;;;;9.30;8.40;;;10.90;55.10;;;;;;5054353;28;20495;-68
2022/03/03 10:54:59;;;;;;;9.07;8.10;;;11.00;56.20;;;;;;5054969;28;20428;-68
2022/03/03 10:57:36;;;;;;;9.00;7.60;;;11.30;63.70;;;;;;5054334;28;20412;-68
2022/03/03 11:00:09;;;;;;;8.03;7.23;;;11.50;64.40;;;;;;5053903;28;20466;-68
2022/03/03 11:02:36;;;;;;;9.40;8.30;;;11.60;59.40;;;;;;5053772;28;20753;-68
2022/03/03 11:05:03;;;;;;;8.70;7.33;;;11.70;55.40;;;;;;5054496;28;20941;-68
2022/03/03 11:07:29;;;;;;;8.77;7.97;;;11.80;52.30;;;;;;5054180;28;20456;-67
2022/03/03 11:09:56;;;;;;;8.17;6.73;;;11.90;52.40;;;;;;5053802;28;20453;-68
2022/03/03 11:12:22;;;;;;;9.30;8.30;;;12.00;56.30;;;;;;5053397;28;20431;-68
2022/03/03 11:14:48;;;;;;;14.10;8.40;;;12.10;56.60;;;;;;5054356;28;20906;-68
2022/03/03 11:17:14;;;;;;;11.33;8.30;;;12.20;52.90;;;;;;5054179;28;20169;-68
2022/03/03 11:19:41;;;;;;;9.10;7.67;;;12.20;55.60;;;;;;5054443;28;20182;-70
2022/03/03 11:22:07;;;;;;;9.13;7.70;;;12.30;54.90;;;;;;5054918;28;20929;-70
2022/03/03 11:24:37;;;;;;;8.13;7.33;;;12.40;51.90;;;;;;5054007;28;20429;-71
2022/03/03 11:27:04;;;;;;;9.17;8.00;;;12.30;48.40;;;;;;5054760;28;20510;-71
2022/03/03 11:29:32;;;;;;;11.33;8.50;;;12.30;47.60;;;;;;5053832;28;20409;-72
2022/03/03 11:32:07;;;;;;;10.47;8.67;;;12.30;47.20;;;;;;5052864;28;20434;-70
2022/03/03 11:34:35;;;;;;;11.40;8.87;;;12.30;47.70;;;;;;5054683;28;20448;-70
2022/03/03 11:37:07;;;;;;;10.30;8.20;;;12.30;48.00;;;;;;5054477;28;20916;-71
2022/03/03 11:39:45;;;;;;;10.03;8.87;;;12.10;46.80;;;;;;5054021;28;20417;-69
2022/03/03 11:42:41;;;;;;;10.43;7.80;;;12.10;45.50;;;;;;5052595;28;20977;-69
2022/03/03 11:45:07;;;;;;;9.10;8.20;;;11.90;46.00;;;;;;5053356;28;20442;-69
2022/03/03 11:47:37;;;;;;;10.40;9.27;;;12.00;47.60;;;;;;5054202;28;20456;-69
2022/03/03 11:50:22;;;;;;;9.53;7.70;;;12.10;48.90;;;;;;5052967;28;20238;-69
2022/03/03 11:53:12;;;;;;;9.37;7.60;;;12.00;49.90;;;;;;5052850;28;20421;-68
2022/03/03 11:55:44;;;;;;;9.07;8.17;;;12.20;52.90;;;;;;5053001;28;21059;-69
2022/03/03 11:58:12;;;;;;;9.17;8.37;;;12.30;54.70;;;;;;5053044;28;20415;-69
2022/03/03 12:00:57;;;;;;;10.27;8.30;;;12.40;53.60;;;;;;5053753;28;20774;-70
2022/03/03 12:03:23;;;;;;;9.90;8.50;;;12.50;53.30;;;;;;5053103;28;20425;-71
2022/03/03 12:06:12;;;;;;;10.93;9.63;;;12.50;50.30;;;;;;5053596;28;20444;-71
2022/03/03 12:08:42;;;;;;;11.20;9.03;;;12.50;48.90;;;;;;5054208;28;20502;-70
2022/03/03 12:11:11;;;;;;;9.47;8.47;;;12.50;47.70;;;;;;5035729;28;20471;-71
2022/03/03 12:13:39;;;;;;;8.63;7.80;;;12.50;46.70;;;;;;5053564;28;20416;-71
2022/03/03 12:16:18;;;;;;;9.83;8.23;;;12.50;46.20;;;;;;5054066;28;20424;-69
2022/03/03 12:18:57;;;;;;;8.50;7.70;;;12.40;46.10;;;;;;5054505;28;20446;-70
2022/03/03 12:21:43;;;;;;;8.50;7.70;;;12.40;45.10;;;;;;5053957;28;20412;-71
2022/03/03 12:24:17;;;;;;;8.10;7.23;;;12.30;45.00;;;;;;5053475;28;20444;-70
2022/03/03 12:27:01;;;;;;;8.87;7.77;;;12.20;44.50;;;;;;5037878;28;20485;-70
2022/03/03 12:29:37;;;;;;;9.20;8.00;;;12.10;42.20;;;;;;5046869;28;21036;-70
2022/03/03 12:32:24;;;;;;;9.17;7.20;;;11.90;42.60;;;;;;5052207;28;20484;-70
2022/03/03 12:35:22;;;;;;;9.53;7.67;;;11.90;42.00;;;;;;5034228;28;20453;-70
2022/03/03 12:37:49;;;;;;;8.90;7.70;;;11.70;41.70;;;;;;4970286;28;20495;-71
2022/03/03 12:40:17;;;;;;;8.17;7.47;;;11.80;43.10;;;;;;4970557;28;20448;-70
2022/03/03 12:42:44;;;;;;;10.13;7.43;;;11.90;43.10;;;;;;4969984;28;20456;-70